Nankin, Ohio
Current Conditions -  °F | °C
As of 3:49 PM on Monday 26 Jan 2015 (Local Time) from KMFD Reporting Station
Overcast Overcast  
Wind Chill:   Ceiling: 1400
Heat Index: 19°   Visibility: 9mi
Dew Point: 12°   Wind: 14mph
Humidity: 74%   Direction: 330°NNW
Pressure: 29.82"   Gusts: NA
Location:  40.92°N, 82.28°W
Report Text: KMFD 262049Z 33012KT 9SM OVC014 M07/M11 A2982 RMK AO2
Loading
Personal Weather Stations






























Interactive Weather Map New forecast layout! Learn more

10-Day Weather Forecast

Advertisements
Track Severe Weather on mobile